sensor_id;sensor_type;location;lat;lon;timestamp;pressure;altitude;pressure_sealevel;temperature;humidity
49055;BME280;35405;52.344;14.530;2022-07-23T06:33:11;100973.72;;;18.33;100.00
49055;BME280;35405;52.344;14.530;2022-07-23T06:35:37;101002.06;;;18.34;100.00
49055;BME280;35405;52.344;14.530;2022-07-23T06:38:02;100992.03;;;18.50;100.00
49055;BME280;35405;52.344;14.530;2022-07-23T06:40:28;100973.06;;;18.69;100.00
49055;BME280;35405;52.344;14.530;2022-07-23T06:42:53;100988.31;;;18.67;100.00
49055;BME280;35405;52.344;14.530;2022-07-23T06:45:18;101013.38;;;18.74;100.00
49055;BME280;35405;52.344;14.530;2022-07-23T06:47:44;101000.84;;;18.98;100.00
49055;BME280;35405;52.344;14.530;2022-07-23T06:50:09;101000.94;;;19.01;100.00
49055;BME280;35405;52.344;14.530;2022-07-23T06:52:35;101008.78;;;18.99;100.00
49055;BME280;35405;52.344;14.530;2022-07-23T06:55:00;101012.31;;;18.66;100.00
49055;BME280;35405;52.344;14.530;2022-07-23T06:57:25;101024.81;;;18.43;100.00
49055;BME280;35405;52.344;14.530;2022-07-23T06:59:51;101024.16;;;18.25;100.00
49055;BME280;35405;52.344;14.530;2022-07-23T07:02:16;101024.44;;;17.81;100.00
49055;BME280;35405;52.344;14.530;2022-07-23T07:04:42;101036.91;;;17.70;100.00
49055;BME280;35405;52.344;14.530;2022-07-23T07:07:07;101033.91;;;17.54;100.00
49055;BME280;35405;52.344;14.530;2022-07-23T07:09:32;101038.31;;;17.47;100.00
49055;BME280;35405;52.344;14.530;2022-07-23T07:11:58;101031.84;;;17.43;100.00
49055;BME280;35405;52.344;14.530;2022-07-23T07:14:23;101027.81;;;17.40;100.00
49055;BME280;35405;52.344;14.530;2022-07-23T07:16:48;101020.38;;;17.41;100.00
49055;BME280;35405;52.344;14.530;2022-07-23T07:19:14;101028.00;;;17.26;100.00
49055;BME280;35405;52.344;14.530;2022-07-23T07:21:39;101035.94;;;17.28;100.00
49055;BME280;35405;52.344;14.530;2022-07-23T07:24:04;101051.81;;;17.13;100.00
49055;BME280;35405;52.344;14.530;2022-07-23T07:26:30;101062.03;;;16.96;100.00
49055;BME280;35405;52.344;14.530;2022-07-23T07:28:56;101054.59;;;16.96;100.00
49055;BME280;35405;52.344;14.530;2022-07-23T07:31:21;101027.63;;;16.81;100.00
49055;BME280;35405;52.344;14.530;2022-07-23T07:33:46;101047.63;;;16.20;100.00
49055;BME280;35405;52.344;14.530;2022-07-23T07:36:12;101072.22;;;15.77;100.00
49055;BME280;35405;52.344;14.530;2022-07-23T07:38:38;101111.97;;;15.66;100.00
49055;BME280;35405;52.344;14.530;2022-07-23T07:41:03;101139.69;;;15.64;100.00
49055;BME280;35405;52.344;14.530;2022-07-23T07:43:28;101134.44;;;15.45;100.00
49055;BME280;35405;52.344;14.530;2022-07-23T07:46:00;101104.13;;;14.97;100.00
49055;BME280;35405;52.344;14.530;2022-07-23T07:48:35;101075.81;;;14.65;100.00
49055;BME280;35405;52.344;14.530;2022-07-23T07:51:00;101038.19;;;14.71;100.00
49055;BME280;35405;52.344;14.530;2022-07-23T07:53:25;101002.38;;;14.81;100.00
49055;BME280;35405;52.344;14.530;2022-07-23T07:55:51;101006.03;;;14.99;100.00
49055;BME280;35405;52.344;14.530;2022-07-23T07:58:16;101038.53;;;15.23;100.00
49055;BME280;35405;52.344;14.530;2022-07-23T08:00:41;101045.09;;;15.75;100.00
49055;BME280;35405;52.344;14.530;2022-07-23T08:03:06;101052.56;;;15.52;100.00
49055;BME280;35405;52.344;14.530;2022-07-23T08:05:32;101040.13;;;15.55;100.00
49055;BME280;35405;52.344;14.530;2022-07-23T08:07:57;101037.69;;;15.45;100.00
49055;BME280;35405;52.344;14.530;2022-07-23T08:10:23;101045.13;;;15.84;100.00
49055;BME280;35405;52.344;14.530;2022-07-23T08:12:49;101020.47;;;16.02;100.00
49055;BME280;35405;52.344;14.530;2022-07-23T08:15:16;101006.56;;;15.89;100.00
49055;BME280;35405;52.344;14.530;2022-07-23T08:17:42;100990.13;;;16.15;100.00
49055;BME280;35405;52.344;14.530;2022-07-23T08:20:08;100990.50;;;16.40;100.00
49055;BME280;35405;52.344;14.530;2022-07-23T08:25:08;101016.34;;;17.38;100.00
49055;BME280;35405;52.344;14.530;2022-07-23T08:27:33;101020.00;;;17.51;100.00
49055;BME280;35405;52.344;14.530;2022-07-23T08:29:59;101006.63;;;17.79;100.00
49055;BME280;35405;52.344;14.530;2022-07-23T08:32:24;100996.47;;;18.00;100.00
49055;BME280;35405;52.344;14.530;2022-07-23T08:34:49;101004.56;;;18.26;100.00
49055;BME280;35405;52.344;14.530;2022-07-23T08:37:14;101006.34;;;18.22;100.00
49055;BME280;35405;52.344;14.530;2022-07-23T08:39:40;101007.22;;;18.14;100.00
49055;BME280;35405;52.344;14.530;2022-07-23T08:42:05;101008.56;;;18.29;100.00
49055;BME280;35405;52.344;14.530;2022-07-23T08:44:31;101012.38;;;18.79;100.00
49055;BME280;35405;52.344;14.530;2022-07-23T08:46:56;101011.16;;;18.67;100.00
49055;BME280;35405;52.344;14.530;2022-07-23T08:49:21;101014.72;;;18.26;100.00
49055;BME280;35405;52.344;14.530;2022-07-23T08:51:47;101012.44;;;18.07;100.00
49055;BME280;35405;52.344;14.530;2022-07-23T08:54:13;101022.66;;;18.27;100.00
49055;BME280;35405;52.344;14.530;2022-07-23T08:56:38;101019.66;;;18.41;100.00
49055;BME280;35405;52.344;14.530;2022-07-23T08:59:04;101025.84;;;18.38;100.00
49055;BME280;35405;52.344;14.530;2022-07-23T09:01:29;101028.78;;;18.54;100.00
49055;BME280;35405;52.344;14.530;2022-07-23T09:03:54;101026.28;;;18.40;100.00
49055;BME280;35405;52.344;14.530;2022-07-23T09:06:20;101020.97;;;18.56;100.00
49055;BME280;35405;52.344;14.530;2022-07-23T09:08:45;101017.91;;;18.79;100.00
49055;BME280;35405;52.344;14.530;2022-07-23T09:11:20;101033.03;;;19.76;100.00
49055;BME280;35405;52.344;14.530;2022-07-23T09:13:52;101042.16;;;19.43;100.00
49055;BME280;35405;52.344;14.530;2022-07-23T09:21:31;101056.16;;;19.83;100.00
49055;BME280;35405;52.344;14.530;2022-07-23T09:31:17;101055.34;;;19.25;100.00
49055;BME280;35405;52.344;14.530;2022-07-23T09:33:42;101057.22;;;19.33;100.00
49055;BME280;35405;52.344;14.530;2022-07-23T09:36:07;101059.63;;;18.68;100.00
49055;BME280;35405;52.344;14.530;2022-07-23T09:38:34;101055.03;;;18.31;100.00
49055;BME280;35405;52.344;14.530;2022-07-23T09:41:06;101059.81;;;18.63;100.00
49055;BME280;35405;52.344;14.530;2022-07-23T09:43:34;101062.63;;;19.30;100.00
49055;BME280;35405;52.344;14.530;2022-07-23T09:52:06;101069.25;;;19.86;100.00
49055;BME280;35405;52.344;14.530;2022-07-23T09:54:38;101070.28;;;19.94;100.00
49055;BME280;35405;52.344;14.530;2022-07-23T09:57:09;101053.78;;;19.61;100.00
49055;BME280;35405;52.344;14.530;2022-07-23T09:59:39;101052.88;;;19.45;100.00
49055;BME280;35405;52.344;14.530;2022-07-23T10:02:06;101045.16;;;19.26;100.00
49055;BME280;35405;52.344;14.530;2022-07-23T10:04:34;101053.19;;;19.31;100.00
49055;BME280;35405;52.344;14.530;2022-07-23T10:07:00;101060.31;;;19.32;100.00
49055;BME280;35405;52.344;14.530;2022-07-23T10:09:30;101061.88;;;19.66;100.00
49055;BME280;35405;52.344;14.530;2022-07-23T10:12:00;101084.63;;;20.37;100.00
49055;BME280;35405;52.344;14.530;2022-07-23T10:14:34;101071.34;;;20.95;100.00
49055;BME280;35405;52.344;14.530;2022-07-23T10:17:01;101067.94;;;21.30;100.00
49055;BME280;35405;52.344;14.530;2022-07-23T10:19:27;101069.47;;;21.27;100.00
49055;BME280;35405;52.344;14.530;2022-07-23T10:22:03;101067.75;;;21.22;100.00
49055;BME280;35405;52.344;14.530;2022-07-23T10:35:07;101055.66;;;20.99;100.00
49055;BME280;35405;52.344;14.530;2022-07-23T10:37:44;101069.91;;;20.85;100.00
49055;BME280;35405;52.344;14.530;2022-07-23T10:40:14;101090.63;;;20.91;100.00
49055;BME280;35405;52.344;14.530;2022-07-23T10:42:42;101087.28;;;20.86;100.00
49055;BME280;35405;52.344;14.530;2022-07-23T10:48:11;101094.38;;;20.71;100.00
49055;BME280;35405;52.344;14.530;2022-07-23T10:50:39;101082.16;;;20.72;100.00
49055;BME280;35405;52.344;14.530;2022-07-23T11:03:56;101082.94;;;21.29;100.00
49055;BME280;35405;52.344;14.530;2022-07-23T11:06:23;101090.19;;;21.33;100.00
49055;BME280;35405;52.344;14.530;2022-07-23T11:08:50;101089.22;;;21.41;100.00
49055;BME280;35405;52.344;14.530;2022-07-23T11:11:33;101090.56;;;21.48;100.00
49055;BME280;35405;52.344;14.530;2022-07-23T11:13:59;101089.31;;;21.45;100.00
49055;BME280;35405;52.344;14.530;2022-07-23T11:16:24;101098.75;;;21.00;100.00
49055;BME280;35405;52.344;14.530;2022-07-23T11:24:11;101089.44;;;20.40;100.00
49055;BME280;35405;52.344;14.530;2022-07-23T11:31:56;101062.84;;;20.47;100.00
49055;BME280;35405;52.344;14.530;2022-07-23T11:34:29;101095.06;;;20.68;100.00
49055;BME280;35405;52.344;14.530;2022-07-23T11:36:55;101103.09;;;20.85;100.00
49055;BME280;35405;52.344;14.530;2022-07-23T11:39:20;101101.47;;;20.84;100.00
49055;BME280;35405;52.344;14.530;2022-07-23T11:41:49;101109.81;;;21.28;100.00
49055;BME280;35405;52.344;14.530;2022-07-23T11:44:28;101083.31;;;21.27;100.00
49055;BME280;35405;52.344;14.530;2022-07-23T11:46:57;101086.25;;;21.34;100.00
49055;BME280;35405;52.344;14.530;2022-07-23T11:49:25;101087.56;;;21.24;100.00
49055;BME280;35405;52.344;14.530;2022-07-23T11:54:29;101076.31;;;20.61;100.00
49055;BME280;35405;52.344;14.530;2022-07-23T11:56:55;101091.38;;;20.51;100.00
49055;BME280;35405;52.344;14.530;2022-07-23T11:59:21;101099.50;;;20.20;100.00
49055;BME280;35405;52.344;14.530;2022-07-23T12:02:03;101098.72;;;20.07;100.00
49055;BME280;35405;52.344;14.530;2022-07-23T12:07:03;101102.03;;;20.25;100.00
49055;BME280;35405;52.344;14.530;2022-07-23T12:09:29;101097.66;;;20.24;100.00
49055;BME280;35405;52.344;14.530;2022-07-23T12:11:58;101099.00;;;20.42;100.00
49055;BME280;35405;52.344;14.530;2022-07-23T12:14:23;101088.59;;;20.76;100.00
49055;BME280;35405;52.344;14.530;2022-07-23T12:17:06;101090.94;;;21.62;100.00
49055;BME280;35405;52.344;14.530;2022-07-23T12:19:31;101080.81;;;22.17;100.00
49055;BME280;35405;52.344;14.530;2022-07-23T12:21:56;101084.09;;;22.39;100.00
49055;BME280;35405;52.344;14.530;2022-07-23T12:24:22;101075.66;;;22.90;100.00
49055;BME280;35405;52.344;14.530;2022-07-23T12:29:34;101044.69;;;22.13;100.00
49055;BME280;35405;52.344;14.530;2022-07-23T12:32:00;101048.69;;;21.97;100.00
49055;BME280;35405;52.344;14.530;2022-07-23T12:34:25;101063.81;;;22.54;100.00
49055;BME280;35405;52.344;14.530;2022-07-23T12:36:51;101078.53;;;23.16;100.00
49055;BME280;35405;52.344;14.530;2022-07-23T12:39:29;101079.06;;;23.22;100.00
49055;BME280;35405;52.344;14.530;2022-07-23T12:41:55;101052.78;;;22.03;100.00
49055;BME280;35405;52.344;14.530;2022-07-23T12:44:21;101064.59;;;21.52;100.00
49055;BME280;35405;52.344;14.530;2022-07-23T12:46:49;101085.31;;;21.58;100.00
49055;BME280;35405;52.344;14.530;2022-07-23T12:49:24;101077.72;;;21.71;100.00
49055;BME280;35405;52.344;14.530;2022-07-23T12:51:50;101094.78;;;21.89;100.00
49055;BME280;35405;52.344;14.530;2022-07-23T12:54:15;101093.84;;;22.32;100.00
49055;BME280;35405;52.344;14.530;2022-07-23T12:56:43;101087.75;;;23.43;100.00
49055;BME280;35405;52.344;14.530;2022-07-23T12:59:10;101079.22;;;23.75;100.00
49055;BME280;35405;52.344;14.530;2022-07-23T13:06:27;101066.06;;;23.26;100.00
49055;BME280;35405;52.344;14.530;2022-07-23T13:08:52;101057.41;;;23.31;100.00
49055;BME280;35405;52.344;14.530;2022-07-23T13:11:17;101066.09;;;23.72;100.00
49055;BME280;35405;52.344;14.530;2022-07-23T13:13:43;101061.84;;;24.05;100.00
49055;BME280;35405;52.344;14.530;2022-07-23T13:16:10;101057.44;;;24.60;100.00
49055;BME280;35405;52.344;14.530;2022-07-23T13:18:36;101050.31;;;24.33;100.00
49055;BME280;35405;52.344;14.530;2022-07-23T13:21:01;101061.03;;;24.61;100.00
49055;BME280;35405;52.344;14.530;2022-07-23T13:23:27;101049.50;;;24.96;100.00
49055;BME280;35405;52.344;14.530;2022-07-23T13:25:53;101036.34;;;24.56;100.00
49055;BME280;35405;52.344;14.530;2022-07-23T13:28:19;101032.69;;;24.52;100.00
49055;BME280;35405;52.344;14.530;2022-07-23T13:30:52;101042.78;;;24.63;100.00
49055;BME280;35405;52.344;14.530;2022-07-23T13:33:21;101034.41;;;24.60;100.00
49055;BME280;35405;52.344;14.530;2022-07-23T13:35:47;101042.84;;;24.67;100.00
49055;BME280;35405;52.344;14.530;2022-07-23T13:38:13;101032.97;;;24.73;100.00
49055;BME280;35405;52.344;14.530;2022-07-23T13:40:39;101041.25;;;24.39;100.00
49055;BME280;35405;52.344;14.530;2022-07-23T13:43:06;101031.75;;;24.10;100.00
49055;BME280;35405;52.344;14.530;2022-07-23T13:45:32;101031.25;;;24.31;100.00
49055;BME280;35405;52.344;14.530;2022-07-23T13:47:57;101018.75;;;24.82;100.00
49055;BME280;35405;52.344;14.530;2022-07-23T13:50:22;101032.16;;;24.73;100.00
49055;BME280;35405;52.344;14.530;2022-07-23T13:52:48;101033.63;;;24.33;100.00
49055;BME280;35405;52.344;14.530;2022-07-23T13:55:17;101032.38;;;24.00;100.00
49055;BME280;35405;52.344;14.530;2022-07-23T13:57:43;101014.84;;;24.23;100.00
49055;BME280;35405;52.344;14.530;2022-07-23T14:00:09;101027.53;;;24.24;100.00
49055;BME280;35405;52.344;14.530;2022-07-23T14:02:38;101031.50;;;24.23;100.00
49055;BME280;35405;52.344;14.530;2022-07-23T14:05:04;101020.50;;;24.03;100.00
49055;BME280;35405;52.344;14.530;2022-07-23T14:07:30;101021.75;;;24.36;100.00
49055;BME280;35405;52.344;14.530;2022-07-23T14:10:03;101013.94;;;24.45;100.00
49055;BME280;35405;52.344;14.530;2022-07-23T14:15:20;101005.06;;;23.79;100.00
49055;BME280;35405;52.344;14.530;2022-07-23T14:17:46;101000.97;;;23.69;100.00
49055;BME280;35405;52.344;14.530;2022-07-23T14:20:14;101006.66;;;23.31;100.00
49055;BME280;35405;52.344;14.530;2022-07-23T14:22:40;101008.50;;;23.46;100.00
49055;BME280;35405;52.344;14.530;2022-07-23T14:25:06;101004.31;;;23.56;100.00
49055;BME280;35405;52.344;14.530;2022-07-23T14:27:35;101004.22;;;23.52;100.00
49055;BME280;35405;52.344;14.530;2022-07-23T14:30:12;101005.38;;;24.01;100.00
49055;BME280;35405;52.344;14.530;2022-07-23T14:35:53;101000.25;;;24.33;100.00
49055;BME280;35405;52.344;14.530;2022-07-23T14:38:33;100987.16;;;24.63;100.00
49055;BME280;35405;52.344;14.530;2022-07-23T14:41:01;100982.84;;;24.70;100.00
49055;BME280;35405;52.344;14.530;2022-07-23T14:43:37;100986.56;;;24.84;100.00
49055;BME280;35405;52.344;14.530;2022-07-23T14:51:56;100985.00;;;25.76;100.00
49055;BME280;35405;52.344;14.530;2022-07-23T14:54:37;100981.56;;;25.42;100.00
49055;BME280;35405;52.344;14.530;2022-07-23T15:00:12;100968.03;;;24.99;100.00
49055;BME280;35405;52.344;14.530;2022-07-23T15:02:47;100976.72;;;24.53;100.00
49055;BME280;35405;52.344;14.530;2022-07-23T15:08:29;100978.78;;;24.97;100.00
49055;BME280;35405;52.344;14.530;2022-07-23T15:11:20;100989.34;;;25.18;100.00
49055;BME280;35405;52.344;14.530;2022-07-23T15:13:49;100984.38;;;25.01;100.00
49055;BME280;35405;52.344;14.530;2022-07-23T15:16:14;100973.69;;;24.69;100.00
49055;BME280;35405;52.344;14.530;2022-07-23T15:18:39;100971.91;;;24.50;100.00
49055;BME280;35405;52.344;14.530;2022-07-23T15:21:05;100985.19;;;24.34;100.00
49055;BME280;35405;52.344;14.530;2022-07-23T15:23:30;100978.69;;;24.23;100.00
49055;BME280;35405;52.344;14.530;2022-07-23T15:25:56;100971.28;;;24.34;100.00
49055;BME280;35405;52.344;14.530;2022-07-23T15:28:21;100970.91;;;24.35;100.00
49055;BME280;35405;52.344;14.530;2022-07-23T15:30:47;100973.91;;;24.19;100.00
49055;BME280;35405;52.344;14.530;2022-07-23T15:33:13;100976.97;;;24.11;100.00
49055;BME280;35405;52.344;14.530;2022-07-23T15:35:38;100975.28;;;24.36;100.00
49055;BME280;35405;52.344;14.530;2022-07-23T15:38:03;100966.53;;;24.68;100.00
49055;BME280;35405;52.344;14.530;2022-07-23T15:40:29;100973.53;;;24.55;100.00
49055;BME280;35405;52.344;14.530;2022-07-23T15:42:54;100967.69;;;24.63;100.00
49055;BME280;35405;52.344;14.530;2022-07-23T15:45:19;100967.75;;;24.67;100.00
49055;BME280;35405;52.344;14.530;2022-07-23T15:47:44;100964.44;;;24.95;100.00
49055;BME280;35405;52.344;14.530;2022-07-23T15:50:11;100960.28;;;25.16;100.00
49055;BME280;35405;52.344;14.530;2022-07-23T15:52:36;100974.84;;;25.05;100.00
49055;BME280;35405;52.344;14.530;2022-07-23T15:55:02;100967.50;;;24.83;100.00
49055;BME280;35405;52.344;14.530;2022-07-23T15:57:28;100971.59;;;24.96;100.00
49055;BME280;35405;52.344;14.530;2022-07-23T15:59:53;100974.38;;;24.96;100.00
49055;BME280;35405;52.344;14.530;2022-07-23T16:02:21;100962.38;;;24.51;100.00
49055;BME280;35405;52.344;14.530;2022-07-23T16:04:46;100971.66;;;24.32;100.00
49055;BME280;35405;52.344;14.530;2022-07-23T16:07:11;100970.84;;;24.28;100.00
49055;BME280;35405;52.344;14.530;2022-07-23T16:09:37;100963.13;;;24.18;100.00
49055;BME280;35405;52.344;14.530;2022-07-23T16:12:02;100966.34;;;23.90;100.00
49055;BME280;35405;52.344;14.530;2022-07-23T16:14:27;100962.31;;;23.84;100.00
49055;BME280;35405;52.344;14.530;2022-07-23T16:16:52;100972.19;;;23.81;100.00
49055;BME280;35405;52.344;14.530;2022-07-23T16:19:18;100968.31;;;23.63;100.00
49055;BME280;35405;52.344;14.530;2022-07-23T16:21:43;100966.09;;;23.49;100.00
49055;BME280;35405;52.344;14.530;2022-07-23T16:24:08;100965.22;;;23.41;100.00
49055;BME280;35405;52.344;14.530;2022-07-23T16:26:34;100967.09;;;23.37;100.00
49055;BME280;35405;52.344;14.530;2022-07-23T16:28:59;100968.94;;;23.52;100.00
49055;BME280;35405;52.344;14.530;2022-07-23T16:31:24;100965.59;;;23.66;100.00
49055;BME280;35405;52.344;14.530;2022-07-23T16:33:51;100964.94;;;23.50;100.00
49055;BME280;35405;52.344;14.530;2022-07-23T16:36:16;100971.31;;;23.50;100.00
49055;BME280;35405;52.344;14.530;2022-07-23T16:38:44;100961.78;;;23.51;100.00
49055;BME280;35405;52.344;14.530;2022-07-23T16:41:09;100966.06;;;23.45;100.00
49055;BME280;35405;52.344;14.530;2022-07-23T16:43:35;100968.88;;;23.49;100.00
49055;BME280;35405;52.344;14.530;2022-07-23T16:46:01;100966.31;;;23.37;100.00
49055;BME280;35405;52.344;14.530;2022-07-23T16:48:26;100969.84;;;23.34;100.00
49055;BME280;35405;52.344;14.530;2022-07-23T16:50:52;100961.22;;;23.16;100.00
49055;BME280;35405;52.344;14.530;2022-07-23T16:53:17;100964.16;;;23.03;100.00
49055;BME280;35405;52.344;14.530;2022-07-23T16:55:43;100964.06;;;22.96;100.00
49055;BME280;35405;52.344;14.530;2022-07-23T16:58:08;100964.06;;;22.96;100.00
49055;BME280;35405;52.344;14.530;2022-07-23T17:00:34;100964.41;;;22.95;100.00
49055;BME280;35405;52.344;14.530;2022-07-23T17:02:59;100969.00;;;22.87;100.00
49055;BME280;35405;52.344;14.530;2022-07-23T17:05:24;100978.41;;;22.82;100.00
49055;BME280;35405;52.344;14.530;2022-07-23T17:07:49;100966.53;;;22.82;100.00
49055;BME280;35405;52.344;14.530;2022-07-23T17:10:15;100968.94;;;22.83;100.00
49055;BME280;35405;52.344;14.530;2022-07-23T17:12:40;100974.13;;;22.85;100.00
49055;BME280;35405;52.344;14.530;2022-07-23T17:15:06;100971.78;;;22.87;100.00
49055;BME280;35405;52.344;14.530;2022-07-23T17:17:31;100969.41;;;22.89;100.00
49055;BME280;35405;52.344;14.530;2022-07-23T17:19:56;100973.25;;;22.81;100.00
49055;BME280;35405;52.344;14.530;2022-07-23T17:22:22;100977.28;;;22.83;100.00
49055;BME280;35405;52.344;14.530;2022-07-23T17:24:47;100977.72;;;22.66;100.00
49055;BME280;35405;52.344;14.530;2022-07-23T17:27:13;100974.38;;;22.57;100.00
49055;BME280;35405;52.344;14.530;2022-07-23T17:29:39;100980.00;;;22.60;100.00
49055;BME280;35405;52.344;14.530;2022-07-23T17:32:04;100977.28;;;22.64;100.00
49055;BME280;35405;52.344;14.530;2022-07-23T17:34:29;100981.00;;;22.52;100.00
49055;BME280;35405;52.344;14.530;2022-07-23T17:36:55;100981.91;;;22.37;100.00
49055;BME280;35405;52.344;14.530;2022-07-23T17:39:20;100981.69;;;22.26;100.00
49055;BME280;35405;52.344;14.530;2022-07-23T17:41:45;100990.53;;;22.16;100.00
49055;BME280;35405;52.344;14.530;2022-07-23T17:44:14;100985.19;;;22.07;100.00
49055;BME280;35405;52.344;14.530;2022-07-23T17:46:40;100987.75;;;21.97;100.00
49055;BME280;35405;52.344;14.530;2022-07-23T17:49:05;100985.25;;;21.91;100.00
49055;BME280;35405;52.344;14.530;2022-07-23T17:51:31;100985.97;;;21.88;100.00
49055;BME280;35405;52.344;14.530;2022-07-23T17:53:57;100990.63;;;21.84;100.00
49055;BME280;35405;52.344;14.530;2022-07-23T17:56:22;100987.59;;;21.74;100.00
49055;BME280;35405;52.344;14.530;2022-07-23T17:58:47;100992.16;;;21.66;100.00
49055;BME280;35405;52.344;14.530;2022-07-23T18:01:13;100990.41;;;21.58;100.00
49055;BME280;35405;52.344;14.530;2022-07-23T18:03:38;100990.50;;;21.45;100.00
49055;BME280;35405;52.344;14.530;2022-07-23T18:06:04;100994.84;;;21.31;100.00
49055;BME280;35405;52.344;14.530;2022-07-23T18:08:29;100991.81;;;21.20;100.00
49055;BME280;35405;52.344;14.530;2022-07-23T18:10:55;100991.88;;;21.08;100.00
49055;BME280;35405;52.344;14.530;2022-07-23T18:13:20;100989.91;;;20.92;100.00
49055;BME280;35405;52.344;14.530;2022-07-23T18:15:46;100988.47;;;20.83;100.00
49055;BME280;35405;52.344;14.530;2022-07-23T18:18:11;100994.63;;;20.76;100.00
49055;BME280;35405;52.344;14.530;2022-07-23T18:20:36;101003.75;;;20.64;100.00
49055;BME280;35405;52.344;14.530;2022-07-23T18:23:01;100999.28;;;20.47;100.00
49055;BME280;35405;52.344;14.530;2022-07-23T18:25:27;101000.47;;;20.46;100.00
49055;BME280;35405;52.344;14.530;2022-07-23T18:27:52;101012.00;;;20.36;100.00
49055;BME280;35405;52.344;14.530;2022-07-23T18:30:18;101008.47;;;20.23;100.00
49055;BME280;35405;52.344;14.530;2022-07-23T18:32:43;101014.34;;;20.22;100.00
49055;BME280;35405;52.344;14.530;2022-07-23T18:35:08;101019.19;;;20.13;100.00
49055;BME280;35405;52.344;14.530;2022-07-23T18:37:34;101018.03;;;20.14;100.00
49055;BME280;35405;52.344;14.530;2022-07-23T18:39:59;101024.16;;;20.07;100.00
49055;BME280;35405;52.344;14.530;2022-07-23T18:42:25;101019.91;;;19.97;100.00
49055;BME280;35405;52.344;14.530;2022-07-23T18:44:50;101024.97;;;19.95;100.00
49055;BME280;35405;52.344;14.530;2022-07-23T18:47:15;101030.72;;;19.90;100.00
49055;BME280;35405;52.344;14.530;2022-07-23T18:49:41;101032.56;;;19.86;100.00
49055;BME280;35405;52.344;14.530;2022-07-23T18:52:06;101039.22;;;19.85;100.00
49055;BME280;35405;52.344;14.530;2022-07-23T18:54:32;101046.38;;;19.86;100.00
49055;BME280;35405;52.344;14.530;2022-07-23T18:56:57;101047.28;;;19.90;100.00
49055;BME280;35405;52.344;14.530;2022-07-23T18:59:22;101043.16;;;19.84;100.00
49055;BME280;35405;52.344;14.530;2022-07-23T19:01:48;101047.19;;;19.74;100.00
49055;BME280;35405;52.344;14.530;2022-07-23T19:04:13;101046.31;;;19.61;100.00
49055;BME280;35405;52.344;14.530;2022-07-23T19:06:39;101052.41;;;19.55;100.00
49055;BME280;35405;52.344;14.530;2022-07-23T19:09:05;101049.31;;;19.56;100.00
49055;BME280;35405;52.344;14.530;2022-07-23T19:11:30;101064.72;;;19.45;100.00
49055;BME280;35405;52.344;14.530;2022-07-23T19:13:56;101056.66;;;19.40;100.00
49055;BME280;35405;52.344;14.530;2022-07-23T19:16:21;101057.78;;;19.27;100.00
49055;BME280;35405;52.344;14.530;2022-07-23T19:18:47;101058.22;;;19.16;100.00
49055;BME280;35405;52.344;14.530;2022-07-23T19:21:12;101067.38;;;19.08;100.00
49055;BME280;35405;52.344;14.530;2022-07-23T19:23:37;101060.00;;;19.00;100.00
49055;BME280;35405;52.344;14.530;2022-07-23T19:26:03;101074.66;;;18.92;100.00
49055;BME280;35405;52.344;14.530;2022-07-23T19:28:29;101069.22;;;18.83;100.00
49055;BME280;35405;52.344;14.530;2022-07-23T19:30:54;101071.84;;;18.80;100.00
49055;BME280;35405;52.344;14.530;2022-07-23T19:33:19;101082.88;;;18.80;100.00
49055;BME280;35405;52.344;14.530;2022-07-23T19:35:45;101078.84;;;18.77;100.00
49055;BME280;35405;52.344;14.530;2022-07-23T19:38:12;101076.28;;;18.72;100.00
49055;BME280;35405;52.344;14.530;2022-07-23T19:40:37;101090.69;;;18.78;100.00
49055;BME280;35405;52.344;14.530;2022-07-23T19:43:02;101090.38;;;18.70;100.00
49055;BME280;35405;52.344;14.530;2022-07-23T19:45:28;101098.25;;;18.60;100.00
49055;BME280;35405;52.344;14.530;2022-07-23T19:47:53;101106.53;;;18.60;100.00
49055;BME280;35405;52.344;14.530;2022-07-23T19:50:18;101106.25;;;18.52;100.00
49055;BME280;35405;52.344;14.530;2022-07-23T19:52:43;101105.22;;;18.36;100.00
49055;BME280;35405;52.344;14.530;2022-07-23T19:55:09;101109.63;;;18.28;100.00
49055;BME280;35405;52.344;14.530;2022-07-23T19:57:35;101111.63;;;18.19;100.00
49055;BME280;35405;52.344;14.530;2022-07-23T20:00:01;101115.25;;;18.11;100.00
49055;BME280;35405;52.344;14.530;2022-07-23T20:02:26;101124.38;;;18.03;100.00
49055;BME280;35405;52.344;14.530;2022-07-23T20:04:51;101126.81;;;17.96;100.00
49055;BME280;35405;52.344;14.530;2022-07-23T20:07:17;101124.25;;;17.91;100.00
49055;BME280;35405;52.344;14.530;2022-07-23T20:09:42;101123.94;;;17.83;100.00
49055;BME280;35405;52.344;14.530;2022-07-23T20:12:07;101131.88;;;17.76;100.00
49055;BME280;35405;52.344;14.530;2022-07-23T20:14:33;101125.13;;;17.65;100.00
49055;BME280;35405;52.344;14.530;2022-07-23T20:16:58;101132.41;;;17.61;100.00
49055;BME280;35405;52.344;14.530;2022-07-23T20:19:24;101132.75;;;17.51;100.00
49055;BME280;35405;52.344;14.530;2022-07-23T20:21:49;101135.50;;;17.51;100.00
49055;BME280;35405;52.344;14.530;2022-07-23T20:24:15;101141.63;;;17.56;100.00
49055;BME280;35405;52.344;14.530;2022-07-23T20:26:45;101144.09;;;17.49;100.00